Time;durP1;ratioP1;P1;durP2;ratioP2;P2;SDS_P1;SDS_P2;PMS_P1;PMS_P2;Temp;Humidity;BMP_temperature;BMP_pressure;BME280_temperature;BME280_humidity;BME280_pressure;Samples;Min_cycle;Max_cycle;Signal;HPM_P1;HPM_P2
2023/10/21 00:00:27;;;;;;;4.97;3.58;;;8.80;99.90;;;;;;5028988;28;20407;-66
2023/10/21 00:02:53;;;;;;;5.28;3.65;;;8.80;99.90;;;;;;5028395;28;20042;-66
2023/10/21 00:05:19;;;;;;;6.28;4.63;;;8.80;99.90;;;;;;5029678;28;20517;-66
2023/10/21 00:07:44;;;;;;;4.35;3.78;;;8.90;99.90;;;;;;5028926;28;20420;-67
2023/10/21 00:10:10;;;;;;;8.63;4.65;;;8.80;99.90;;;;;;5027591;28;20500;-66
2023/10/21 00:12:37;;;;;;;4.85;3.80;;;8.80;99.90;;;;;;5012262;28;20049;-67
2023/10/21 00:15:07;;;;;;;5.13;4.43;;;8.90;99.90;;;;;;5028793;28;20045;-66
2023/10/21 00:17:33;;;;;;;5.20;4.35;;;8.90;99.90;;;;;;5029630;28;20565;-67
2023/10/21 00:19:59;;;;;;;5.40;4.90;;;8.80;99.90;;;;;;5021834;28;20046;-67
2023/10/21 00:22:26;;;;;;;5.63;4.43;;;8.90;99.90;;;;;;5003716;28;20049;-67
2023/10/21 00:24:52;;;;;;;8.90;5.18;;;8.90;99.90;;;;;;5029360;28;20112;-66
2023/10/21 00:27:17;;;;;;;8.65;5.68;;;8.90;99.90;;;;;;5010817;28;20148;-66
2023/10/21 00:29:43;;;;;;;9.88;5.43;;;9.00;99.90;;;;;;5011990;28;20057;-67
2023/10/21 00:32:09;;;;;;;6.40;5.43;;;9.00;99.90;;;;;;5022462;28;20044;-66
2023/10/21 00:34:38;;;;;;;9.27;6.07;;;9.00;99.90;;;;;;5029649;28;20037;-66
2023/10/21 00:37:05;;;;;;;8.70;5.68;;;9.00;99.90;;;;;;4994373;28;20601;-66
2023/10/21 00:39:37;;;;;;;7.85;5.97;;;9.00;99.90;;;;;;5029369;28;20426;-66
2023/10/21 00:42:04;;;;;;;9.40;6.57;;;9.00;99.90;;;;;;5020488;28;20399;-66
2023/10/21 00:44:30;;;;;;;8.27;6.00;;;9.00;99.90;;;;;;5028482;28;20518;-67
2023/10/21 00:47:00;;;;;;;8.60;5.93;;;9.00;99.90;;;;;;5011912;28;20053;-66
2023/10/21 00:49:28;;;;;;;13.40;7.45;;;9.10;99.90;;;;;;5001366;28;20049;-66
2023/10/21 00:51:55;;;;;;;11.30;6.35;;;9.20;99.90;;;;;;5024267;28;20553;-66
2023/10/21 00:54:24;;;;;;;11.98;5.80;;;9.20;99.90;;;;;;5028379;28;20041;-66
2023/10/21 00:56:51;;;;;;;13.15;7.15;;;9.10;99.90;;;;;;5027405;28;20079;-66
2023/10/21 00:59:17;;;;;;;12.60;6.95;;;9.10;99.90;;;;;;5006160;28;20468;-66
2023/10/21 01:01:43;;;;;;;12.77;7.15;;;9.20;99.90;;;;;;4999524;28;20052;-66
2023/10/21 01:04:10;;;;;;;12.10;7.13;;;9.20;99.90;;;;;;5010567;28;20053;-66
2023/10/21 01:06:36;;;;;;;7.95;5.72;;;9.20;99.90;;;;;;5027227;28;20487;-66
2023/10/21 01:09:02;;;;;;;14.65;7.50;;;9.30;99.90;;;;;;5028935;28;20068;-66
2023/10/21 01:11:27;;;;;;;13.85;6.97;;;9.30;99.90;;;;;;4993666;28;20468;-66
2023/10/21 01:13:55;;;;;;;11.68;6.55;;;9.20;99.90;;;;;;4994750;28;20057;-66
2023/10/21 01:16:22;;;;;;;11.10;6.38;;;9.20;99.90;;;;;;4997565;28;20132;-66
2023/10/21 01:18:47;;;;;;;13.25;6.88;;;9.10;99.90;;;;;;5027977;28;20103;-66
2023/10/21 01:21:13;;;;;;;10.20;6.18;;;9.20;99.90;;;;;;4997897;28;20050;-66
2023/10/21 01:23:39;;;;;;;9.60;6.50;;;9.10;99.90;;;;;;5017715;28;20041;-66
2023/10/21 01:26:05;;;;;;;15.43;6.72;;;9.10;99.90;;;;;;5028899;28;20055;-66
2023/10/21 01:28:35;;;;;;;11.13;7.22;;;9.00;99.90;;;;;;5027194;28;20116;-66
2023/10/21 01:31:01;;;;;;;20.65;7.38;;;9.10;99.90;;;;;;5026871;28;20045;-66
2023/10/21 01:33:27;;;;;;;15.48;7.30;;;9.00;99.90;;;;;;5010792;28;20038;-66
2023/10/21 01:35:53;;;;;;;16.60;6.35;;;9.00;99.90;;;;;;5009260;28;20049;-66
2023/10/21 01:38:19;;;;;;;21.25;7.93;;;9.10;99.90;;;;;;5028269;28;20098;-66
2023/10/21 01:40:47;;;;;;;21.50;7.22;;;9.10;99.90;;;;;;5025466;28;20038;-66
2023/10/21 01:43:13;;;;;;;34.10;7.03;;;9.10;99.90;;;;;;5028503;28;20076;-66
2023/10/21 01:45:39;;;;;;;25.98;7.53;;;9.00;99.90;;;;;;5007601;28;20064;-66
2023/10/21 01:48:10;;;;;;;26.33;7.13;;;9.00;99.90;;;;;;5028384;28;20520;-66
2023/10/21 01:50:37;;;;;;;33.55;8.32;;;9.10;99.90;;;;;;5009641;28;20345;-66
2023/10/21 01:53:03;;;;;;;40.80;8.57;;;9.20;99.90;;;;;;4993540;28;20045;-66
2023/10/21 01:55:28;;;;;;;37.58;8.70;;;9.10;99.90;;;;;;5010532;28;20133;-66
2023/10/21 01:57:54;;;;;;;28.13;8.00;;;9.10;99.90;;;;;;5008860;28;20034;-66
2023/10/21 02:00:20;;;;;;;44.22;8.75;;;9.20;99.90;;;;;;5028387;28;20057;-66
2023/10/21 02:02:55;;;;;;;40.88;7.03;;;9.10;99.90;;;;;;5024960;28;20403;-66
2023/10/21 02:05:22;;;;;;;29.35;6.65;;;9.20;99.90;;;;;;5028075;28;20475;-66
2023/10/21 02:07:48;;;;;;;26.05;7.20;;;9.20;99.90;;;;;;4998036;28;20061;-66
2023/10/21 02:10:17;;;;;;;33.42;6.95;;;9.20;99.90;;;;;;5006165;28;20060;-66
2023/10/21 02:12:43;;;;;;;25.20;6.88;;;9.20;99.90;;;;;;5001881;28;20064;-66
2023/10/21 02:15:14;;;;;;;13.52;6.47;;;9.20;99.90;;;;;;5008826;28;20041;-66
2023/10/21 02:17:44;;;;;;;26.67;6.00;;;9.30;99.90;;;;;;5027672;28;20525;-66
2023/10/21 02:20:14;;;;;;;23.25;7.20;;;9.30;99.90;;;;;;4992938;28;20049;-66
2023/10/21 02:22:41;;;;;;;29.58;7.43;;;9.20;99.90;;;;;;5021497;28;20471;-66
2023/10/21 02:25:14;;;;;;;35.30;7.63;;;9.30;99.90;;;;;;5026555;28;20053;-66
2023/10/21 02:27:40;;;;;;;29.75;6.85;;;9.30;99.90;;;;;;5009648;28;20470;-66
2023/10/21 02:30:08;;;;;;;26.92;7.18;;;9.30;99.90;;;;;;5027385;28;20840;-66
2023/10/21 02:32:34;;;;;;;27.75;7.00;;;9.30;99.90;;;;;;5008392;28;20056;-66
2023/10/21 02:35:00;;;;;;;47.15;7.45;;;9.30;99.90;;;;;;5009711;28;20395;-65
2023/10/21 02:37:25;;;;;;;25.42;6.78;;;9.30;99.90;;;;;;4992157;28;20054;-66
2023/10/21 02:39:51;;;;;;;25.92;7.20;;;9.30;99.90;;;;;;5027158;28;20047;-66
2023/10/21 02:42:16;;;;;;;23.45;7.43;;;9.30;99.90;;;;;;5026646;28;20515;-65
2023/10/21 02:44:42;;;;;;;39.33;7.50;;;9.30;99.90;;;;;;5025418;28;20095;-66
2023/10/21 02:47:08;;;;;;;35.85;8.98;;;9.30;99.90;;;;;;5026688;28;20270;-65
2023/10/21 02:49:34;;;;;;;32.65;7.30;;;9.30;99.90;;;;;;5026356;28;20518;-65
2023/10/21 02:51:59;;;;;;;31.63;7.28;;;9.30;99.90;;;;;;5027073;28;20099;-66
2023/10/21 02:54:25;;;;;;;34.97;7.68;;;9.40;99.90;;;;;;5025342;28;20053;-66
2023/10/21 02:56:51;;;;;;;26.08;7.30;;;9.30;99.90;;;;;;4978796;28;20057;-66
2023/10/21 02:59:17;;;;;;;39.95;7.43;;;9.40;99.90;;;;;;5008028;28;20041;-66
2023/10/21 03:01:42;;;;;;;30.67;8.00;;;9.40;99.90;;;;;;5009495;28;20041;-66
2023/10/21 03:04:08;;;;;;;25.63;7.35;;;9.40;99.90;;;;;;4985440;28;20084;-66
2023/10/21 03:06:34;;;;;;;36.78;8.10;;;9.40;99.90;;;;;;5002708;28;20050;-66
2023/10/21 03:09:00;;;;;;;22.25;7.13;;;9.50;99.90;;;;;;5008708;28;20399;-66
2023/10/21 03:11:25;;;;;;;41.83;8.32;;;9.50;99.90;;;;;;5026020;28;20057;-65
2023/10/21 03:13:51;;;;;;;30.98;7.63;;;9.40;99.90;;;;;;5008576;28;20526;-65
2023/10/21 03:16:17;;;;;;;47.08;7.70;;;9.40;99.90;;;;;;5025405;28;20042;-66
2023/10/21 03:18:45;;;;;;;43.88;8.65;;;9.40;99.90;;;;;;5027246;28;20092;-65
2023/10/21 03:21:11;;;;;;;32.42;7.22;;;9.50;99.90;;;;;;5025839;28;20042;-66
2023/10/21 03:23:37;;;;;;;41.45;7.72;;;9.50;99.90;;;;;;5026894;28;20056;-66
2023/10/21 03:26:04;;;;;;;31.15;8.10;;;9.60;99.90;;;;;;5025759;28;20514;-65
2023/10/21 03:28:30;;;;;;;52.88;8.15;;;9.50;99.90;;;;;;5008138;28;20049;-66
2023/10/21 03:30:57;;;;;;;22.02;7.57;;;9.60;99.90;;;;;;5026883;28;20056;-65
2023/10/21 03:33:27;;;;;;;45.10;8.38;;;9.50;99.90;;;;;;5006260;28;20053;-66
2023/10/21 03:35:53;;;;;;;62.55;9.18;;;9.60;99.90;;;;;;5027169;28;20283;-65
2023/10/21 03:38:21;;;;;;;30.23;7.95;;;9.70;99.90;;;;;;5025115;28;20041;-66
2023/10/21 03:41:05;;;;;;;35.33;7.38;;;9.60;99.90;;;;;;5009149;28;20525;-66
2023/10/21 03:43:32;;;;;;;36.25;7.68;;;9.60;99.90;;;;;;5022390;28;20522;-66
2023/10/21 03:46:01;;;;;;;32.38;7.65;;;9.60;99.90;;;;;;5025435;28;20042;-66
2023/10/21 03:48:26;;;;;;;34.00;8.43;;;9.60;99.90;;;;;;5009265;28;20519;-66
2023/10/21 03:50:52;;;;;;;26.30;7.10;;;9.60;99.90;;;;;;5025963;28;20052;-66
2023/10/21 03:53:18;;;;;;;33.95;8.50;;;9.70;99.90;;;;;;5026006;28;20278;-65
2023/10/21 03:55:44;;;;;;;33.10;7.63;;;9.60;99.90;;;;;;5007742;28;20061;-66
2023/10/21 03:58:13;;;;;;;37.22;7.95;;;9.70;99.90;;;;;;5026333;28;20411;-66
2023/10/21 04:00:39;;;;;;;38.63;8.00;;;9.70;99.90;;;;;;5011608;28;20128;-66
2023/10/21 04:03:05;;;;;;;22.40;7.30;;;9.70;99.90;;;;;;5027044;28;20044;-66
2023/10/21 04:05:33;;;;;;;27.45;7.40;;;9.70;99.90;;;;;;5029385;28;20057;-66
2023/10/21 04:07:59;;;;;;;24.65;7.55;;;9.70;99.90;;;;;;5011019;28;20041;-65
2023/10/21 04:10:25;;;;;;;20.50;6.95;;;9.70;99.90;;;;;;5029957;28;20045;-65
2023/10/21 04:12:51;;;;;;;33.28;7.88;;;9.70;99.90;;;;;;5029040;28;20041;-66
2023/10/21 04:15:17;;;;;;;40.83;7.20;;;9.70;99.90;;;;;;5010609;28;20753;-65
2023/10/21 04:17:45;;;;;;;37.08;6.78;;;9.70;99.90;;;;;;5011686;28;20049;-65
2023/10/21 04:20:12;;;;;;;59.17;8.00;;;9.70;99.90;;;;;;5028102;28;20049;-65
2023/10/21 04:22:42;;;;;;;66.47;9.38;;;9.70;99.90;;;;;;5032590;28;20052;-65
2023/10/21 04:25:08;;;;;;;50.92;7.78;;;9.70;99.90;;;;;;5028336;28;20463;-66
2023/10/21 04:27:34;;;;;;;38.15;7.65;;;9.70;99.90;;;;;;5043915;28;20073;-65
2023/10/21 04:30:00;;;;;;;36.55;6.75;;;9.70;99.90;;;;;;5028735;28;20388;-65
2023/10/21 04:32:25;;;;;;;40.25;7.43;;;9.60;99.90;;;;;;4995183;28;20132;-65
2023/10/21 04:34:51;;;;;;;55.72;7.72;;;9.60;99.90;;;;;;5028948;28;20037;-65
2023/10/21 04:37:17;;;;;;;58.50;8.85;;;9.60;99.90;;;;;;5028811;28;20512;-66
2023/10/21 04:39:42;;;;;;;44.05;8.32;;;9.70;99.90;;;;;;5011741;28;20045;-66
2023/10/21 04:42:10;;;;;;;26.58;7.25;;;9.60;99.90;;;;;;5026800;28;20044;-65
2023/10/21 04:44:36;;;;;;;39.45;7.72;;;9.60;99.90;;;;;;5011200;28;20052;-65
2023/10/21 04:47:02;;;;;;;32.40;8.63;;;9.60;99.90;;;;;;5010339;28;20041;-65
2023/10/21 04:49:28;;;;;;;33.00;8.02;;;9.60;99.90;;;;;;5029554;28;20073;-65
2023/10/21 04:51:54;;;;;;;30.95;8.13;;;9.60;99.90;;;;;;5010229;28;20084;-66
2023/10/21 04:54:19;;;;;;;40.28;8.90;;;9.60;99.90;;;;;;5001468;28;20041;-65
2023/10/21 04:56:45;;;;;;;28.17;8.55;;;9.60;99.90;;;;;;5032144;28;20085;-65
2023/10/21 04:59:11;;;;;;;24.83;7.93;;;9.60;99.90;;;;;;4990012;28;20048;-65
2023/10/21 05:01:36;;;;;;;17.15;8.73;;;9.60;99.90;;;;;;5027207;28;20049;-65
2023/10/21 05:04:02;;;;;;;27.60;7.65;;;9.60;99.90;;;;;;5027380;28;20479;-65
2023/10/21 05:06:28;;;;;;;13.55;6.85;;;9.50;99.90;;;;;;5006879;28;20478;-65
2023/10/21 05:08:54;;;;;;;13.18;7.45;;;9.50;99.90;;;;;;5010242;28;20141;-65
2023/10/21 05:11:20;;;;;;;14.27;7.40;;;9.50;99.90;;;;;;5027790;28;20574;-66
2023/10/21 05:13:45;;;;;;;11.13;7.03;;;9.50;99.90;;;;;;5017690;28;20096;-65
2023/10/21 05:16:11;;;;;;;13.25;7.32;;;9.50;99.90;;;;;;5027174;28;20085;-66
2023/10/21 05:18:38;;;;;;;14.90;7.00;;;9.40;99.90;;;;;;5029245;28;20483;-66
2023/10/21 05:21:07;;;;;;;12.07;7.13;;;9.40;99.90;;;;;;5027367;28;20559;-65
2023/10/21 05:23:33;;;;;;;12.73;6.57;;;9.40;99.90;;;;;;5027190;28;20045;-66
2023/10/21 05:25:59;;;;;;;9.38;6.88;;;9.20;99.90;;;;;;5027111;28;20141;-65
2023/10/21 05:28:25;;;;;;;10.25;6.88;;;9.20;99.90;;;;;;5028517;28;20120;-65
2023/10/21 05:30:50;;;;;;;8.60;6.05;;;9.20;99.90;;;;;;5027544;28;20052;-65
2023/10/21 05:33:17;;;;;;;9.50;6.10;;;9.20;99.90;;;;;;5028010;28;20126;-65
2023/10/21 05:35:42;;;;;;;6.35;5.60;;;9.20;99.90;;;;;;4993058;28;20041;-65
2023/10/21 05:38:08;;;;;;;9.00;5.78;;;9.10;99.90;;;;;;4990249;28;20042;-65
2023/10/21 05:40:35;;;;;;;11.55;5.82;;;9.10;99.90;;;;;;5018182;28;20604;-65
2023/10/21 05:43:01;;;;;;;9.50;5.65;;;9.10;99.90;;;;;;5009520;28;20046;-65
2023/10/21 05:45:27;;;;;;;6.53;5.60;;;9.00;99.90;;;;;;5026109;28;20578;-65
2023/10/21 05:47:55;;;;;;;9.48;6.22;;;9.00;99.90;;;;;;5026930;28;20041;-65
2023/10/21 05:50:23;;;;;;;10.43;5.50;;;9.00;99.90;;;;;;5027729;28;20392;-65
2023/10/21 05:52:49;;;;;;;7.43;5.57;;;9.00;99.90;;;;;;5028420;28;20542;-65
2023/10/21 05:55:15;;;;;;;7.10;5.78;;;8.90;99.90;;;;;;5025721;28;20127;-65
2023/10/21 05:57:40;;;;;;;10.68;5.25;;;9.00;99.90;;;;;;5028029;28;20428;-65
2023/10/21 06:00:08;;;;;;;5.63;5.03;;;8.90;99.90;;;;;;5026688;28;20242;-65
2023/10/21 06:02:33;;;;;;;8.75;5.55;;;8.90;99.90;;;;;;5010067;28;20041;-65
2023/10/21 06:04:59;;;;;;;10.60;5.45;;;8.90;99.90;;;;;;5026018;28;20076;-65
2023/10/21 06:07:25;;;;;;;6.10;5.10;;;8.90;99.90;;;;;;4997976;28;20041;-65
2023/10/21 06:09:51;;;;;;;5.28;4.78;;;8.90;99.90;;;;;;5027527;28;20030;-65
2023/10/21 06:12:17;;;;;;;7.18;5.22;;;8.90;99.90;;;;;;5027374;28;20057;-65
2023/10/21 06:14:43;;;;;;;6.40;4.95;;;8.90;99.90;;;;;;5027631;28;20053;-65
2023/10/21 06:17:08;;;;;;;10.68;5.60;;;8.90;99.90;;;;;;5024539;28;20049;-65
2023/10/21 06:19:34;;;;;;;6.90;5.47;;;8.90;99.90;;;;;;5009712;28;20375;-65
2023/10/21 06:22:00;;;;;;;14.85;5.85;;;8.90;99.90;;;;;;5008222;28;20049;-65
2023/10/21 06:24:25;;;;;;;8.98;5.20;;;9.00;99.90;;;;;;5027354;28;20052;-65
2023/10/21 06:26:51;;;;;;;7.18;5.47;;;9.00;99.90;;;;;;5026452;28;20041;-65
2023/10/21 06:29:17;;;;;;;8.18;5.82;;;8.90;99.90;;;;;;5027602;28;20038;-65
2023/10/21 06:31:42;;;;;;;7.38;5.72;;;9.00;99.90;;;;;;5009406;28;20041;-65
2023/10/21 06:34:08;;;;;;;9.10;5.93;;;9.00;99.90;;;;;;5009229;28;20053;-65
2023/10/21 06:36:34;;;;;;;10.45;5.90;;;8.90;99.90;;;;;;5025115;28;20080;-65
2023/10/21 06:39:00;;;;;;;6.63;5.90;;;9.00;99.90;;;;;;5026219;28;20080;-65
2023/10/21 06:41:26;;;;;;;8.48;6.20;;;8.90;99.90;;;;;;5009557;28;20046;-65
2023/10/21 06:43:52;;;;;;;10.05;6.95;;;9.00;99.90;;;;;;5008697;28;20081;-65
2023/10/21 06:46:18;;;;;;;10.43;5.63;;;9.10;99.90;;;;;;5009535;28;20073;-66
2023/10/21 06:48:44;;;;;;;8.80;5.82;;;9.10;99.90;;;;;;5007133;28;20405;-66
2023/10/21 06:51:10;;;;;;;14.55;6.47;;;9.10;99.90;;;;;;5026561;28;20055;-66
2023/10/21 06:53:36;;;;;;;7.88;6.13;;;9.00;99.90;;;;;;5009139;28;20467;-66
2023/10/21 06:56:02;;;;;;;7.38;5.80;;;9.10;99.90;;;;;;5025993;28;20104;-66
2023/10/21 06:58:28;;;;;;;13.15;6.70;;;9.10;99.90;;;;;;5025163;28;20616;-66
2023/10/21 07:00:54;;;;;;;8.18;5.68;;;9.20;99.90;;;;;;5025750;28;20041;-66
2023/10/21 07:03:19;;;;;;;9.02;6.35;;;9.10;99.90;;;;;;4990884;28;20054;-66
2023/10/21 07:05:45;;;;;;;8.23;6.18;;;9.20;99.90;;;;;;5025116;28;20069;-66
2023/10/21 07:08:11;;;;;;;9.10;5.70;;;9.10;99.90;;;;;;5026765;28;20561;-66
2023/10/21 07:10:38;;;;;;;8.10;6.45;;;9.20;99.90;;;;;;5025820;28;20061;-66
2023/10/21 07:13:04;;;;;;;5.90;5.22;;;9.10;99.90;;;;;;5026224;28;20037;-66
2023/10/21 07:15:33;;;;;;;8.85;6.25;;;9.10;99.90;;;;;;5026211;28;20128;-66
2023/10/21 07:17:59;;;;;;;8.73;6.18;;;9.20;99.90;;;;;;4986832;28;20046;-66
2023/10/21 07:20:26;;;;;;;10.52;5.90;;;9.20;99.90;;;;;;5022999;28;20049;-65
2023/10/21 07:22:52;;;;;;;7.20;5.97;;;9.20;99.90;;;;;;5025481;28;20081;-66
2023/10/21 07:25:18;;;;;;;7.32;5.20;;;9.30;99.90;;;;;;5009509;28;20087;-66
2023/10/21 07:27:45;;;;;;;8.38;6.00;;;9.30;99.90;;;;;;5026221;28;20077;-65
2023/10/21 07:30:11;;;;;;;10.23;5.78;;;9.30;99.90;;;;;;5024630;28;20041;-66
2023/10/21 07:32:37;;;;;;;9.57;6.38;;;9.40;99.90;;;;;;5026360;28;20039;-66
2023/10/21 07:35:04;;;;;;;7.05;6.13;;;9.40;99.90;;;;;;5027615;28;20045;-66
2023/10/21 07:37:30;;;;;;;7.93;5.30;;;9.50;99.90;;;;;;5031223;28;20054;-65
2023/10/21 07:39:58;;;;;;;10.88;6.00;;;9.50;99.90;;;;;;5024128;28;20095;-66
2023/10/21 07:42:24;;;;;;;11.75;5.78;;;9.50;99.90;;;;;;5003319;28;20038;-66
2023/10/21 07:44:50;;;;;;;6.03;5.50;;;9.60;99.90;;;;;;5026197;28;20146;-66
2023/10/21 07:47:16;;;;;;;7.75;5.97;;;9.70;99.90;;;;;;5009019;28;20045;-66
2023/10/21 07:49:42;;;;;;;5.45;4.85;;;9.80;99.90;;;;;;5008421;28;20034;-66
2023/10/21 07:52:09;;;;;;;7.47;5.55;;;9.70;99.90;;;;;;5016091;28;20406;-66
2023/10/21 07:54:37;;;;;;;10.18;6.22;;;9.80;99.90;;;;;;5030257;28;20050;-66
2023/10/21 07:57:04;;;;;;;12.70;6.03;;;9.90;99.90;;;;;;5028720;28;20132;-66
2023/10/21 07:59:30;;;;;;;8.10;6.03;;;10.00;99.90;;;;;;5027630;28;20052;-66
2023/10/21 08:01:56;;;;;;;8.70;5.50;;;10.00;99.90;;;;;;4993395;28;20042;-66
2023/10/21 08:04:21;;;;;;;11.45;6.18;;;10.10;99.90;;;;;;5027445;28;20489;-66
2023/10/21 08:06:47;;;;;;;11.45;6.03;;;10.00;99.90;;;;;;5029406;28;20505;-66
2023/10/21 08:09:17;;;;;;;11.55;7.07;;;10.10;99.90;;;;;;5009648;28;20048;-66
2023/10/21 08:11:44;;;;;;;9.70;6.47;;;10.10;99.90;;;;;;5029965;28;20488;-66
2023/10/21 08:14:11;;;;;;;14.93;5.72;;;10.30;99.90;;;;;;5026931;28;20038;-66
2023/10/21 08:16:38;;;;;;;14.65;7.07;;;10.30;99.90;;;;;;5030354;28;20045;-66
2023/10/21 08:19:05;;;;;;;11.48;6.28;;;10.40;99.90;;;;;;5028595;28;20052;-66
2023/10/21 08:21:31;;;;;;;17.38;6.95;;;10.30;99.90;;;;;;5030200;28;20116;-66
2023/10/21 08:23:57;;;;;;;8.95;6.07;;;10.50;99.90;;;;;;5028051;28;20044;-66
2023/10/21 08:26:24;;;;;;;16.80;5.95;;;10.60;99.90;;;;;;4994699;28;20049;-66
2023/10/21 08:28:50;;;;;;;13.57;6.65;;;10.60;99.90;;;;;;5011872;28;20048;-65
2023/10/21 08:31:16;;;;;;;9.75;6.07;;;10.70;99.90;;;;;;5011294;28;20045;-65
2023/10/21 08:33:41;;;;;;;10.48;6.43;;;10.70;99.90;;;;;;5019398;28;20512;-65
2023/10/21 08:36:19;;;;;;;13.98;6.57;;;10.70;99.90;;;;;;5012084;28;21176;-66
2023/10/21 08:38:48;;;;;;;9.65;5.35;;;10.80;99.90;;;;;;5035662;28;20084;-66
2023/10/21 08:41:14;;;;;;;16.25;5.78;;;10.90;99.90;;;;;;5034169;28;20049;-65
2023/10/21 08:43:46;;;;;;;16.27;5.68;;;10.90;99.90;;;;;;5046251;28;20137;-66
2023/10/21 08:46:13;;;;;;;10.18;5.72;;;11.00;99.90;;;;;;5013067;28;20045;-65
2023/10/21 08:48:41;;;;;;;10.15;6.25;;;11.00;99.90;;;;;;5024205;28;20039;-66
2023/10/21 08:51:09;;;;;;;10.73;5.72;;;11.10;99.90;;;;;;5046868;28;20057;-65
2023/10/21 08:53:38;;;;;;;16.35;5.63;;;11.10;99.90;;;;;;5028240;28;20118;-66
2023/10/21 08:56:04;;;;;;;11.10;5.30;;;11.20;99.90;;;;;;5019852;28;20050;-66
2023/10/21 08:58:31;;;;;;;13.45;5.68;;;11.20;99.90;;;;;;5010092;28;20454;-65
2023/10/21 09:00:57;;;;;;;10.38;5.50;;;11.30;99.90;;;;;;5027376;28;20049;-65
2023/10/21 09:03:24;;;;;;;13.23;6.20;;;11.30;99.90;;;;;;5028974;28;20515;-65
2023/10/21 09:06:11;;;;;;;11.13;5.32;;;11.40;99.90;;;;;;5023865;28;20479;-65
2023/10/21 09:08:41;;;;;;;16.77;5.05;;;11.50;99.90;;;;;;5025745;28;20049;-65
2023/10/21 09:11:10;;;;;;;14.68;6.40;;;11.60;99.90;;;;;;5027893;28;20045;-65
2023/10/21 09:13:37;;;;;;;15.48;5.78;;;11.60;99.90;;;;;;5028421;28;20056;-65
2023/10/21 09:16:19;;;;;;;13.60;5.70;;;11.70;99.90;;;;;;5025835;28;20140;-64
2023/10/21 09:19:05;;;;;;;10.98;5.20;;;11.80;99.90;;;;;;5027527;28;20045;-65
2023/10/21 09:21:34;;;;;;;17.85;6.55;;;11.90;99.90;;;;;;5026689;28;20673;-64
2023/10/21 09:24:04;;;;;;;13.55;5.95;;;12.10;99.90;;;;;;5004302;28;20049;-65
2023/10/21 09:26:41;;;;;;;11.18;5.65;;;12.10;99.90;;;;;;5027689;28;20049;-64
2023/10/21 09:29:14;;;;;;;7.72;5.32;;;12.20;99.90;;;;;;5028033;28;20455;-65
2023/10/21 09:31:54;;;;;;;11.10;5.60;;;12.40;99.90;;;;;;5027024;28;20080;-65
2023/10/21 09:34:25;;;;;;;12.45;5.20;;;12.50;99.90;;;;;;5028264;28;20059;-65
2023/10/21 09:36:56;;;;;;;13.43;5.75;;;12.50;99.90;;;;;;5026993;28;20398;-64
2023/10/21 09:39:22;;;;;;;;;;;12.60;99.90;;;;;;5005209;28;20085;-65
2023/10/21 09:41:48;;;;;;;10.13;4.68;;;12.60;99.90;;;;;;5027854;28;19956;-65
2023/10/21 09:44:15;;;;;;;14.15;5.93;;;12.80;99.90;;;;;;5023189;28;20040;-64
2023/10/21 09:46:43;;;;;;;12.75;5.18;;;12.90;99.90;;;;;;5025906;28;20047;-65
2023/10/21 09:49:12;;;;;;;16.35;5.35;;;13.20;99.90;;;;;;5024440;28;20072;-65
2023/10/21 09:51:45;;;;;;;14.57;5.75;;;13.50;99.90;;;;;;5027992;28;20153;-65
2023/10/21 09:54:13;;;;;;;11.55;5.95;;;13.60;99.90;;;;;;5026756;28;20478;-65
2023/10/21 09:56:40;;;;;;;13.55;5.63;;;13.80;99.90;;;;;;4999809;28;20034;-65
2023/10/21 09:59:07;;;;;;;15.25;5.47;;;14.10;99.90;;;;;;5008149;28;20072;-65
2023/10/21 10:01:37;;;;;;;13.18;5.72;;;14.00;99.90;;;;;;5026086;28;20099;-65
2023/10/21 10:04:09;;;;;;;8.88;4.88;;;14.20;99.90;;;;;;5027793;28;20168;-65
2023/10/21 10:06:37;;;;;;;10.73;4.68;;;14.30;99.90;;;;;;5026527;28;20148;-65
2023/10/21 10:09:06;;;;;;;12.70;6.40;;;14.40;99.90;;;;;;5025530;28;20033;-65
2023/10/21 10:11:34;;;;;;;12.82;5.05;;;14.30;99.90;;;;;;5033837;28;20045;-65
2023/10/21 10:14:02;;;;;;;15.48;4.93;;;14.40;99.90;;;;;;5029378;28;20451;-65
2023/10/21 10:16:28;;;;;;;11.75;5.05;;;14.50;99.90;;;;;;5026126;28;20048;-65
2023/10/21 10:18:56;;;;;;;14.52;5.45;;;14.50;99.90;;;;;;5026038;28;20128;-65
2023/10/21 10:21:22;;;;;;;12.88;5.05;;;14.50;99.90;;;;;;5014620;28;20041;-65
2023/10/21 10:23:53;;;;;;;12.55;5.43;;;14.60;99.90;;;;;;5026273;28;20602;-65
2023/10/21 10:26:38;;;;;;;11.32;5.15;;;14.70;99.90;;;;;;5027269;28;20052;-65
2023/10/21 10:29:18;;;;;;;16.10;5.90;;;14.80;99.90;;;;;;4996332;28;20037;-65
2023/10/21 10:31:47;;;;;;;13.35;5.53;;;15.00;99.90;;;;;;5011973;28;20049;-65
2023/10/21 10:34:16;;;;;;;12.02;4.97;;;14.90;99.90;;;;;;5005790;28;20124;-65
2023/10/21 10:36:41;;;;;;;12.00;4.70;;;14.90;99.90;;;;;;5027360;28;20434;-66
2023/10/21 10:39:27;;;;;;;12.27;4.47;;;14.70;99.90;;;;;;4989702;28;20095;-65
2023/10/21 10:41:53;;;;;;;13.18;5.30;;;14.80;99.90;;;;;;5018471;28;20141;-65
2023/10/21 10:44:19;;;;;;;15.93;4.40;;;14.70;99.90;;;;;;5025356;28;20120;-65
2023/10/21 10:46:47;;;;;;;9.90;3.92;;;14.60;99.90;;;;;;5027457;28;20402;-65
2023/10/21 10:49:12;;;;;;;7.22;3.53;;;14.50;99.90;;;;;;5025874;28;20048;-65
2023/10/21 10:51:43;;;;;;;11.40;3.50;;;14.50;99.90;;;;;;5027177;28;20041;-65
2023/10/21 10:54:14;;;;;;;11.98;2.97;;;14.50;99.90;;;;;;5025483;28;20037;-65
2023/10/21 10:56:42;;;;;;;9.05;3.17;;;14.30;99.90;;;;;;5025221;28;20049;-65
2023/10/21 10:59:17;;;;;;;7.55;2.60;;;14.40;99.90;;;;;;5026088;28;20053;-65
2023/10/21 11:01:45;;;;;;;10.68;2.97;;;14.30;99.90;;;;;;5008126;28;20056;-65
2023/10/21 11:04:10;;;;;;;9.18;2.25;;;14.30;99.90;;;;;;5007090;28;20049;-65
2023/10/21 11:06:43;;;;;;;6.63;2.72;;;14.30;99.90;;;;;;5021559;28;20077;-65
2023/10/21 11:09:16;;;;;;;2.45;1.70;;;14.30;99.90;;;;;;5023597;28;20050;-65
2023/10/21 11:11:46;;;;;;;5.82;1.35;;;14.20;99.90;;;;;;5030036;28;20057;-65
2023/10/21 11:14:16;;;;;;;0.75;0.57;;;14.10;99.90;;;;;;5030910;28;20134;-65
2023/10/21 11:16:43;;;;;;;2.67;0.90;;;14.20;99.90;;;;;;5009940;28;20045;-65
2023/10/21 11:19:08;;;;;;;2.03;0.85;;;14.10;99.90;;;;;;5024172;28;20053;-65
2023/10/21 11:21:39;;;;;;;0.88;0.50;;;14.10;99.90;;;;;;5031021;28;20045;-65
2023/10/21 11:24:10;;;;;;;1.85;0.63;;;14.00;99.90;;;;;;5023295;28;20398;-65
2023/10/21 11:26:36;;;;;;;0.85;0.45;;;14.10;99.90;;;;;;5033362;28;20041;-65
2023/10/21 11:29:05;;;;;;;3.60;0.73;;;14.20;99.90;;;;;;5024842;28;20052;-65
2023/10/21 11:31:32;;;;;;;2.13;0.60;;;14.10;99.90;;;;;;4991680;28;20042;-64
2023/10/21 11:34:14;;;;;;;1.85;0.63;;;14.10;99.90;;;;;;5028567;28;20045;-65
2023/10/21 11:36:46;;;;;;;3.13;0.70;;;14.10;99.90;;;;;;5027632;28;20041;-65
2023/10/21 11:39:14;;;;;;;2.75;0.50;;;14.10;99.90;;;;;;5004597;28;20506;-65
2023/10/21 11:41:48;;;;;;;2.67;0.60;;;14.10;99.90;;;;;;5007673;28;20127;-65
2023/10/21 11:44:16;;;;;;;2.70;0.85;;;14.30;99.90;;;;;;5012562;28;20064;-65
2023/10/21 11:46:42;;;;;;;1.20;0.52;;;14.40;99.90;;;;;;5011785;28;20053;-65
2023/10/21 11:49:14;;;;;;;2.58;0.70;;;14.50;99.90;;;;;;5017704;28;20110;-66
2023/10/21 11:51:41;;;;;;;4.32;0.77;;;14.40;99.90;;;;;;5030600;28;20045;-65
2023/10/21 11:54:23;;;;;;;4.30;0.90;;;14.40;99.90;;;;;;5030672;28;20127;-66
2023/10/21 12:35:08;;;;;;;0.77;0.50;;;14.60;99.90;;;;;;5005384;28;20046;-65
2023/10/21 12:37:30;;;;;;;0.50;0.50;;;14.50;99.90;;;;;;5024127;28;20396;-65
2023/10/21 12:40:53;;;;;;;1.80;0.45;;;14.50;99.90;;;;;;5023963;28;20042;-65
2023/10/21 12:42:46;;;;;;;0.50;0.47;;;14.50;99.90;;;;;;5011365;28;20107;-65
2023/10/21 12:45:18;;;;;;;0.45;0.40;;;14.50;99.90;;;;;;5028754;28;20045;-65
2023/10/21 12:47:47;;;;;;;1.55;0.40;;;14.40;99.90;;;;;;5022391;28;20050;-65
2023/10/21 12:50:16;;;;;;;3.60;0.40;;;14.30;99.90;;;;;;5027881;28;20038;-65
2023/10/21 12:52:47;;;;;;;2.05;0.57;;;14.20;99.90;;;;;;5029435;28;20041;-65
2023/10/21 12:55:14;;;;;;;2.15;0.50;;;14.20;99.90;;;;;;5028226;28;20042;-64
2023/10/21 12:57:43;;;;;;;2.38;0.60;;;14.10;99.90;;;;;;5010684;28;20045;-65
2023/10/21 13:00:11;;;;;;;1.58;0.40;;;14.10;99.90;;;;;;5028493;28;20096;-64
2023/10/21 13:02:39;;;;;;;0.77;0.45;;;14.10;99.90;;;;;;5027675;28;20462;-65
2023/10/21 13:05:07;;;;;;;0.88;0.40;;;14.40;99.90;;;;;;5029362;28;20037;-67
2023/10/21 13:07:33;;;;;;;0.50;0.50;;;14.70;99.90;;;;;;5027153;28;20495;-65
2023/10/21 13:09:59;;;;;;;3.78;0.43;;;14.90;99.90;;;;;;5027687;28;20108;-65
2023/10/21 13:12:26;;;;;;;1.20;0.45;;;15.00;99.90;;;;;;5009424;28;20045;-65
2023/10/21 13:14:52;;;;;;;3.53;0.50;;;15.10;99.90;;;;;;5029308;28;20053;-65
2023/10/21 13:17:18;;;;;;;2.88;0.50;;;15.00;99.90;;;;;;5010911;28;20097;-65
2023/10/21 13:19:44;;;;;;;0.80;0.40;;;15.00;99.90;;;;;;5027983;28;20045;-64
2023/10/21 13:22:10;;;;;;;0.57;0.30;;;15.00;99.90;;;;;;5021473;28;20083;-64
2023/10/21 13:24:36;;;;;;;0.30;0.20;;;15.10;99.90;;;;;;5027281;28;20475;-65
2023/10/21 13:27:04;;;;;;;2.45;0.30;;;15.10;99.90;;;;;;5010689;28;20096;-65